KMBS/MBS METAR and TAF weather

Enter ICAO airport designator
Station Type Date Time Source
KMBS METAR 2020/04/09 09:53 UTC NOAA

KMBS 090953Z 24005KT 10SM BKN090 OVC110 03/01 A2953 RMK AO2 SLP001 T00330006


Station Type Date Time Source
KMBS Decoded METAR 2020/04/09 09:53 UTC NOAA

MBS INTERNATIONAL AIRPORT, MI, United States (KMBS) 43-32N 084-05W 202M
Apr 09, 2020 - 05:53 AM EDT / 2020.04.09 0953 UTC
Wind: from the WSW (240 degrees) at 6 MPH (5 KT):0
Visibility: 10 mile(s):0
Sky conditions: overcast
Temperature: 37.9 F (3.3 C)
Dew Point: 33.1 F (0.6 C)
Relative Humidity: 82%
Pressure (altimeter): 29.53 in. Hg (1000 hPa)
ob: KMBS 090953Z 24005KT 10SM BKN090 OVC110 03/01 A2953 RMK AO2 SLP001 T00330006
cycle: 10

Station Type Date Time Source
KMBS TAF 2020/04/09 06:22 UTC NOAA

TAF KMBS 090520Z 0906/1006 34012G20KT P6SM SCT025 OVC050
TEMPO 0906/0907 6SM -SHRA OVC025
FM091000 32012G20KT P6SM SCT035 BKN100
FM091600 29022G32KT P6SM BKN050
TEMPO 0917/0921 6SM SHRAPL OVC040
FM100000 28014G22KT P6SM BKN060

Example: see airport list